Time;durP1;ratioP1;P1;durP2;ratioP2;P2;SDS_P1;SDS_P2;PMS_P1;PMS_P2;Temp;Humidity;BMP_temperature;BMP_pressure;BME280_temperature;BME280_humidity;BME280_pressure;Samples;Min_cycle;Max_cycle;Signal;HPM_P1;HPM_P2
2022/09/01 00:00:37;;;;;;;1.02;0.40;;;18.30;67.90;;;;;;5032901;28;20076;-58
2022/09/01 00:03:02;;;;;;;0.95;0.70;;;18.30;68.10;;;;;;5032561;28;20021;-58
2022/09/01 00:05:31;;;;;;;1.25;0.50;;;18.30;68.30;;;;;;5032646;28;20021;-58
2022/09/01 00:07:57;;;;;;;0.93;0.40;;;18.20;68.40;;;;;;5032594;28;20025;-58
2022/09/01 00:10:23;;;;;;;1.25;0.50;;;18.20;68.70;;;;;;5032808;28;20037;-58
2022/09/01 00:12:48;;;;;;;3.65;0.57;;;18.20;68.90;;;;;;5032333;28;20127;-58
2022/09/01 00:15:15;;;;;;;0.85;0.40;;;18.10;69.00;;;;;;5032403;28;20021;-58
2022/09/01 00:17:41;;;;;;;0.95;0.50;;;18.10;69.30;;;;;;5030881;28;20466;-58
2022/09/01 00:20:07;;;;;;;1.05;0.40;;;18.00;69.50;;;;;;5032161;28;20021;-58
2022/09/01 00:22:33;;;;;;;1.23;0.45;;;18.00;69.80;;;;;;5032402;28;20026;-58
2022/09/01 00:25:00;;;;;;;1.17;0.43;;;18.00;70.00;;;;;;5032709;28;20025;-58
2022/09/01 00:27:25;;;;;;;3.22;0.73;;;17.90;70.00;;;;;;5032679;28;20021;-58
2022/09/01 00:29:50;;;;;;;0.75;0.40;;;17.90;70.10;;;;;;5031674;28;20536;-58
2022/09/01 00:32:16;;;;;;;2.08;0.40;;;17.90;70.30;;;;;;5032175;28;20084;-58
2022/09/01 00:34:42;;;;;;;1.00;0.50;;;17.80;70.50;;;;;;5032394;28;20025;-58
2022/09/01 00:37:07;;;;;;;1.85;0.50;;;17.80;70.50;;;;;;5031990;28;20518;-58
2022/09/01 00:39:33;;;;;;;0.90;0.40;;;17.80;70.80;;;;;;5030799;28;20035;-59
2022/09/01 00:41:58;;;;;;;0.75;0.47;;;17.80;70.90;;;;;;5017653;28;20018;-58
2022/09/01 00:44:26;;;;;;;0.95;0.40;;;17.70;71.10;;;;;;5032293;28;20381;-58
2022/09/01 00:46:54;;;;;;;0.98;0.45;;;17.70;71.30;;;;;;5030564;28;20022;-58
2022/09/01 00:49:30;;;;;;;0.60;0.40;;;17.60;71.40;;;;;;5032093;28;20033;-58
2022/09/01 00:52:06;;;;;;;0.98;0.60;;;17.60;72.10;;;;;;5032116;28;20021;-58
2022/09/01 00:54:36;;;;;;;1.30;0.50;;;17.60;71.90;;;;;;5031050;28;20033;-58
2022/09/01 00:57:03;;;;;;;1.70;0.50;;;17.50;72.00;;;;;;5031706;28;20535;-58
2022/09/01 00:59:29;;;;;;;1.70;0.60;;;17.50;72.20;;;;;;5031162;28;20403;-58
2022/09/01 01:30:22;;;;;;;1.67;0.60;;;17.10;74.30;;;;;;5028254;28;20137;-58
2022/09/01 01:32:48;;;;;;;2.65;0.70;;;17.00;75.00;;;;;;5030901;28;20020;-58
2022/09/01 01:35:15;;;;;;;2.63;0.70;;;17.00;74.90;;;;;;5031649;28;20108;-58
2022/09/01 01:37:44;;;;;;;2.40;0.70;;;17.00;75.00;;;;;;5030992;28;20048;-58
2022/09/01 01:40:14;;;;;;;0.88;0.50;;;16.90;75.20;;;;;;5031066;28;20116;-58
2022/09/01 01:42:45;;;;;;;2.10;0.75;;;16.90;75.20;;;;;;5030703;28;20018;-58
2022/09/01 01:45:14;;;;;;;1.25;0.80;;;16.90;75.40;;;;;;5030852;28;20029;-58
2022/09/01 01:47:39;;;;;;;1.90;0.70;;;16.90;75.50;;;;;;5031082;28;20436;-58
2022/09/01 01:50:08;;;;;;;1.60;0.98;;;16.90;75.60;;;;;;5031170;28;20748;-57
2022/09/01 01:52:34;;;;;;;1.02;0.60;;;16.90;75.80;;;;;;5030933;28;20096;-58
2022/09/01 01:55:00;;;;;;;1.48;0.60;;;16.80;76.00;;;;;;5030931;28;20013;-57
2022/09/01 01:57:31;;;;;;;2.25;0.63;;;16.80;76.10;;;;;;5030873;28;20021;-58
2022/09/01 01:59:57;;;;;;;2.33;0.60;;;16.80;76.30;;;;;;5028790;28;20029;-57
2022/09/01 02:02:23;;;;;;;1.02;0.63;;;16.70;76.20;;;;;;5015010;28;20076;-57
2022/09/01 02:04:48;;;;;;;3.47;0.90;;;16.70;76.20;;;;;;5030701;28;20090;-58
2022/09/01 02:07:14;;;;;;;1.48;0.65;;;16.70;76.40;;;;;;5031202;28;20369;-57
2022/09/01 02:09:44;;;;;;;1.88;0.60;;;16.70;76.60;;;;;;5030611;28;20382;-58
2022/09/01 02:12:10;;;;;;;1.95;1.25;;;16.70;76.60;;;;;;5029793;28;20033;-58
2022/09/01 02:14:35;;;;;;;1.42;0.63;;;16.70;76.60;;;;;;5031563;28;20025;-58
2022/09/01 02:17:04;;;;;;;2.03;0.80;;;16.70;76.60;;;;;;5030659;28;20049;-58
2022/09/01 02:19:30;;;;;;;1.42;0.60;;;16.70;76.60;;;;;;5030776;28;20049;-58
2022/09/01 02:21:58;;;;;;;1.80;0.80;;;16.70;76.70;;;;;;5030625;28;20061;-58
2022/09/01 02:24:25;;;;;;;1.83;0.70;;;16.70;76.80;;;;;;5029214;28;20024;-58
2022/09/01 02:26:51;;;;;;;1.10;0.60;;;16.70;76.80;;;;;;5030512;28;20018;-58
2022/09/01 02:29:20;;;;;;;2.67;0.82;;;16.70;76.80;;;;;;5030375;28;20073;-58
2022/09/01 02:31:50;;;;;;;;;;;16.70;77.00;;;;;;5031051;28;21203;-58
2022/09/01 02:34:17;;;;;;;1.58;0.60;;;16.60;77.20;;;;;;5030205;28;19905;-58
2022/09/01 02:36:46;;;;;;;3.90;0.90;;;16.60;77.40;;;;;;5030516;28;20104;-58
2022/09/01 02:39:28;;;;;;;1.30;0.70;;;16.60;77.60;;;;;;5027879;28;20014;-58
2022/09/01 02:41:54;;;;;;;1.42;0.90;;;16.60;77.40;;;;;;5030583;28;20030;-58
2022/09/01 02:44:20;;;;;;;2.75;0.90;;;16.60;77.70;;;;;;5016985;28;20024;-58
2022/09/01 02:46:47;;;;;;;1.85;0.90;;;16.60;77.70;;;;;;5030789;28;20034;-58
2022/09/01 02:49:18;;;;;;;1.75;0.90;;;16.50;77.70;;;;;;5030427;28;20036;-58
2022/09/01 02:51:47;;;;;;;1.50;0.73;;;16.50;77.70;;;;;;5030534;28;20061;-58
2022/09/01 02:54:15;;;;;;;1.85;0.70;;;16.60;77.60;;;;;;5032235;28;20017;-58
2022/09/01 02:56:43;;;;;;;3.17;1.10;;;16.60;77.60;;;;;;5034298;28;20056;-58
2022/09/01 02:59:11;;;;;;;2.67;0.50;;;16.50;77.50;;;;;;5033939;28;20256;-58
2022/09/01 03:01:38;;;;;;;2.42;0.90;;;16.50;77.60;;;;;;5034085;28;20536;-58
2022/09/01 03:04:06;;;;;;;1.70;0.77;;;16.50;77.60;;;;;;5033444;28;20397;-57
2022/09/01 03:06:33;;;;;;;2.47;1.00;;;16.50;77.70;;;;;;5033624;28;20025;-58
2022/09/01 03:08:59;;;;;;;2.00;0.63;;;16.50;77.70;;;;;;5034082;28;20022;-58
2022/09/01 03:11:28;;;;;;;1.88;0.80;;;16.50;77.50;;;;;;5032315;28;20017;-58
2022/09/01 03:13:54;;;;;;;1.73;0.80;;;16.50;77.60;;;;;;5031440;28;20381;-58
2022/09/01 03:16:23;;;;;;;2.65;1.10;;;16.50;77.50;;;;;;5033482;28;20035;-58
2022/09/01 03:18:49;;;;;;;1.33;0.70;;;16.50;77.50;;;;;;5033613;28;20017;-57
2022/09/01 03:21:15;;;;;;;2.13;0.80;;;16.50;77.60;;;;;;5033126;28;20393;-58
2022/09/01 03:23:43;;;;;;;3.17;1.55;;;16.40;77.60;;;;;;5033427;28;20109;-58
2022/09/01 03:26:08;;;;;;;3.88;0.90;;;16.40;77.60;;;;;;5032088;28;20040;-58
2022/09/01 03:28:36;;;;;;;1.40;0.80;;;16.40;77.70;;;;;;5033406;28;20537;-58
2022/09/01 03:31:02;;;;;;;1.20;0.60;;;16.40;77.60;;;;;;5033423;28;20029;-58
2022/09/01 03:33:29;;;;;;;1.13;0.70;;;16.40;77.60;;;;;;5033014;28;20048;-57
2022/09/01 03:35:56;;;;;;;2.40;1.00;;;16.40;77.60;;;;;;5033340;28;20020;-57
2022/09/01 03:38:23;;;;;;;2.05;0.70;;;16.30;77.60;;;;;;5019530;28;20052;-58
2022/09/01 03:40:51;;;;;;;2.00;0.98;;;16.30;77.70;;;;;;5032817;28;20469;-58
2022/09/01 03:43:18;;;;;;;2.03;1.00;;;16.30;77.80;;;;;;5033096;28;20056;-57
2022/09/01 03:45:45;;;;;;;1.70;0.70;;;16.30;77.90;;;;;;5033657;28;20147;-58
2022/09/01 03:48:11;;;;;;;2.53;0.90;;;16.30;78.00;;;;;;5033094;28;20037;-58
2022/09/01 03:50:39;;;;;;;1.65;0.75;;;16.30;78.10;;;;;;5031745;28;20017;-58
2022/09/01 03:53:06;;;;;;;1.70;0.75;;;16.30;78.30;;;;;;5033168;28;20018;-57
2022/09/01 03:55:34;;;;;;;2.33;0.70;;;16.20;78.30;;;;;;5032350;28;20028;-57
2022/09/01 03:58:05;;;;;;;1.35;0.60;;;16.20;78.30;;;;;;5032816;28;20022;-57
2022/09/01 04:00:42;;;;;;;1.50;0.80;;;16.20;78.20;;;;;;5032807;28;20053;-57
2022/09/01 04:03:10;;;;;;;1.52;0.70;;;16.10;78.20;;;;;;5032952;28;20029;-58
2022/09/01 04:05:37;;;;;;;1.43;0.70;;;16.10;78.30;;;;;;5015690;28;20541;-57
2022/09/01 04:08:05;;;;;;;1.55;0.80;;;16.10;78.30;;;;;;5030449;28;20025;-57
2022/09/01 04:10:33;;;;;;;1.92;0.88;;;16.10;78.30;;;;;;5030017;28;20021;-58
2022/09/01 04:12:59;;;;;;;2.22;0.57;;;16.00;78.20;;;;;;5029814;28;20017;-57
2022/09/01 04:15:26;;;;;;;1.67;0.80;;;16.00;78.20;;;;;;5029932;28;20038;-58
2022/09/01 04:18:18;;;;;;;1.85;0.70;;;16.00;78.30;;;;;;5030159;28;20026;-57
2022/09/01 04:20:49;;;;;;;1.63;0.60;;;16.00;78.40;;;;;;5030048;28;20489;-58
2022/09/01 04:23:20;;;;;;;3.38;0.90;;;15.90;78.60;;;;;;5027755;28;20032;-58
2022/09/01 04:25:49;;;;;;;2.00;0.85;;;15.90;78.60;;;;;;5030199;28;20487;-58
2022/09/01 04:28:21;;;;;;;2.20;1.00;;;15.90;78.60;;;;;;5027561;28;20029;-58
2022/09/01 04:30:54;;;;;;;2.08;0.98;;;15.90;78.80;;;;;;5029852;28;21446;-57
2022/09/01 04:33:21;;;;;;;1.95;0.88;;;15.90;78.90;;;;;;5029885;28;20032;-58
2022/09/01 04:35:49;;;;;;;1.88;0.93;;;15.80;78.90;;;;;;5030057;28;20044;-58
2022/09/01 04:38:15;;;;;;;1.70;0.80;;;15.80;78.90;;;;;;5027325;28;20381;-58
2022/09/01 04:40:41;;;;;;;3.72;0.90;;;15.80;78.70;;;;;;5029865;28;20025;-58
2022/09/01 04:43:08;;;;;;;1.48;0.77;;;15.80;78.60;;;;;;5029829;28;20555;-57
2022/09/01 04:45:35;;;;;;;2.47;0.80;;;15.80;78.60;;;;;;5027113;28;20013;-58
2022/09/01 04:48:02;;;;;;;1.92;0.70;;;15.80;78.60;;;;;;5029731;28;20025;-58
2022/09/01 04:50:29;;;;;;;2.50;1.00;;;15.80;78.60;;;;;;5029628;28;20036;-58
2022/09/01 04:53:01;;;;;;;2.45;1.00;;;15.80;78.60;;;;;;5029720;28;20033;-58
2022/09/01 04:55:28;;;;;;;2.08;1.00;;;15.80;78.60;;;;;;5029350;28;20083;-58
2022/09/01 04:57:57;;;;;;;2.03;0.82;;;15.70;78.70;;;;;;5031074;28;20116;-58
2022/09/01 05:00:24;;;;;;;2.22;0.80;;;15.70;78.80;;;;;;5031112;28;20022;-58
2022/09/01 05:03:02;;;;;;;1.95;0.80;;;15.60;78.80;;;;;;5033286;28;20024;-57
2022/09/01 05:05:29;;;;;;;4.32;1.65;;;15.60;78.70;;;;;;5032837;28;20028;-58
2022/09/01 05:07:55;;;;;;;1.95;0.73;;;15.60;78.80;;;;;;5033291;28;20504;-58
2022/09/01 05:10:22;;;;;;;1.23;0.73;;;15.60;78.90;;;;;;5032572;28;20032;-58
2022/09/01 05:12:48;;;;;;;1.98;0.80;;;15.60;79.00;;;;;;5032951;28;20029;-58
2022/09/01 05:15:16;;;;;;;1.92;0.77;;;15.60;79.00;;;;;;5032804;28;20029;-58
2022/09/01 05:17:42;;;;;;;2.53;0.80;;;15.60;79.00;;;;;;5032852;28;20026;-58
2022/09/01 05:20:10;;;;;;;1.60;0.75;;;15.50;79.00;;;;;;5032084;28;20095;-58
2022/09/01 05:22:39;;;;;;;2.15;1.00;;;15.50;79.00;;;;;;5033176;28;20025;-58
2022/09/01 05:25:12;;;;;;;2.75;1.00;;;15.50;79.10;;;;;;5032412;28;20021;-57
2022/09/01 05:27:50;;;;;;;2.00;0.77;;;15.50;79.20;;;;;;5032513;28;20025;-58
2022/09/01 05:30:17;;;;;;;1.23;0.70;;;15.50;79.30;;;;;;5032168;28;20051;-58
2022/09/01 05:32:46;;;;;;;1.08;0.65;;;15.50;79.40;;;;;;5032555;28;20105;-58
2022/09/01 05:35:11;;;;;;;1.20;0.80;;;15.50;79.30;;;;;;5031854;28;20036;-58
2022/09/01 05:37:38;;;;;;;3.30;0.80;;;15.50;79.40;;;;;;5032043;28;20116;-58
2022/09/01 05:40:08;;;;;;;2.88;1.27;;;15.50;79.60;;;;;;5032885;28;20037;-58
2022/09/01 05:42:39;;;;;;;1.65;0.75;;;15.50;79.70;;;;;;5032285;28;20034;-58
2022/09/01 05:45:05;;;;;;;5.05;1.10;;;15.50;79.70;;;;;;5032466;28;20023;-58
2022/09/01 05:47:35;;;;;;;4.85;1.08;;;15.50;79.90;;;;;;5032540;28;20018;-58
2022/09/01 05:50:02;;;;;;;4.70;1.17;;;15.40;80.20;;;;;;5032520;28;20551;-58
2022/09/01 05:52:32;;;;;;;2.67;1.00;;;15.50;80.60;;;;;;5031857;28;20497;-57
2022/09/01 05:54:58;;;;;;;2.63;1.10;;;15.40;81.10;;;;;;5032532;28;20079;-58
2022/09/01 05:57:25;;;;;;;5.47;1.20;;;15.40;81.60;;;;;;5031917;28;20493;-58
2022/09/01 05:59:52;;;;;;;7.80;1.15;;;15.50;81.90;;;;;;5031988;28;20037;-58
2022/09/01 06:02:22;;;;;;;5.32;1.42;;;15.50;82.00;;;;;;5032133;28;20091;-57
2022/09/01 06:05:14;;;;;;;7.45;1.63;;;15.50;82.10;;;;;;5032346;28;20138;-58
2022/09/01 06:07:56;;;;;;;2.88;0.90;;;15.50;83.00;;;;;;5022545;28;20116;-58
2022/09/01 06:10:22;;;;;;;5.80;1.30;;;15.60;82.50;;;;;;5032093;28;20534;-58
2022/09/01 06:12:49;;;;;;;4.82;1.30;;;15.60;82.50;;;;;;5032350;28;20057;-58
2022/09/01 06:15:19;;;;;;;5.13;1.00;;;15.60;82.30;;;;;;5031843;28;20389;-57
2022/09/01 06:17:45;;;;;;;4.30;1.50;;;15.70;82.20;;;;;;5032341;28;20095;-58
2022/09/01 06:20:11;;;;;;;3.88;1.30;;;15.70;82.00;;;;;;5031903;28;20094;-57
2022/09/01 06:22:38;;;;;;;2.08;1.13;;;15.80;81.90;;;;;;5032066;28;20456;-58
2022/09/01 06:25:05;;;;;;;5.20;1.50;;;15.80;81.50;;;;;;5031915;28;20020;-58
2022/09/01 06:27:32;;;;;;;2.67;1.50;;;15.90;81.50;;;;;;5033260;28;20460;-58
2022/09/01 06:29:57;;;;;;;4.13;1.40;;;15.90;81.30;;;;;;5030893;28;20048;-57
2022/09/01 06:32:24;;;;;;;1.95;1.10;;;16.00;81.00;;;;;;5034265;28;20025;-58
2022/09/01 06:34:50;;;;;;;3.72;0.90;;;16.10;80.70;;;;;;5033971;28;20515;-58
2022/09/01 06:37:21;;;;;;;5.70;1.02;;;16.20;80.10;;;;;;5033644;28;20029;-58
2022/09/01 06:39:47;;;;;;;3.00;1.00;;;16.20;79.60;;;;;;5034378;28;20067;-57
2022/09/01 06:42:12;;;;;;;2.05;0.80;;;16.30;79.30;;;;;;5035082;28;20120;-57
2022/09/01 06:44:39;;;;;;;4.47;1.20;;;16.30;79.10;;;;;;5035203;28;20025;-57
2022/09/01 06:47:06;;;;;;;1.98;1.10;;;16.40;78.90;;;;;;5034513;28;20021;-58
2022/09/01 06:49:33;;;;;;;6.38;1.20;;;16.50;78.50;;;;;;5035383;28;20029;-57
2022/09/01 06:52:01;;;;;;;5.05;1.13;;;16.60;78.00;;;;;;5035476;28;20025;-58
2022/09/01 06:54:34;;;;;;;1.90;0.93;;;16.60;78.00;;;;;;5033675;28;20109;-57
2022/09/01 06:57:03;;;;;;;3.38;1.20;;;16.70;77.90;;;;;;5034078;28;20159;-57
2022/09/01 06:59:32;;;;;;;3.63;0.80;;;16.80;77.40;;;;;;5033927;28;20085;-58
2022/09/01 07:02:00;;;;;;;2.08;0.90;;;16.90;76.80;;;;;;5032764;28;20048;-57
2022/09/01 07:04:28;;;;;;;2.58;0.85;;;17.00;76.70;;;;;;5031363;28;20075;-58
2022/09/01 07:06:54;;;;;;;3.00;0.75;;;17.10;76.30;;;;;;5033751;28;20021;-58
2022/09/01 07:09:20;;;;;;;6.82;0.82;;;17.20;76.20;;;;;;5015762;28;20040;-58
2022/09/01 07:11:46;;;;;;;3.55;1.05;;;17.20;76.10;;;;;;5030149;28;20021;-58
2022/09/01 07:14:14;;;;;;;2.50;0.80;;;17.30;75.60;;;;;;5033673;28;20102;-58
2022/09/01 07:16:40;;;;;;;12.40;1.33;;;17.30;75.40;;;;;;5033262;28;20021;-59
2022/09/01 07:19:11;;;;;;;3.08;0.80;;;17.40;75.30;;;;;;5033847;28;20071;-58
2022/09/01 07:21:37;;;;;;;4.30;1.00;;;17.40;75.30;;;;;;5034492;28;20029;-57
2022/09/01 07:24:04;;;;;;;6.70;0.90;;;17.50;75.00;;;;;;5034828;28;20025;-58
2022/09/01 07:26:30;;;;;;;5.63;1.00;;;17.50;75.00;;;;;;5034857;28;20028;-58
2022/09/01 07:28:56;;;;;;;4.70;0.90;;;17.50;75.00;;;;;;5034680;28;20025;-58
2022/09/01 07:31:25;;;;;;;5.20;1.10;;;17.60;75.10;;;;;;5034709;28;20029;-58
2022/09/01 07:33:53;;;;;;;4.07;0.90;;;17.60;75.10;;;;;;5034799;28;20026;-57
2022/09/01 07:36:19;;;;;;;3.28;1.10;;;17.60;75.00;;;;;;5034260;28;20021;-58
2022/09/01 07:38:52;;;;;;;1.42;0.70;;;17.70;74.60;;;;;;5033699;28;20053;-58
2022/09/01 07:41:19;;;;;;;2.88;0.90;;;17.80;74.60;;;;;;5032643;28;20504;-58
2022/09/01 07:43:44;;;;;;;2.05;0.60;;;17.90;74.50;;;;;;5035244;28;20393;-57
2022/09/01 07:46:10;;;;;;;2.55;1.13;;;17.90;74.30;;;;;;5033814;28;20021;-58
2022/09/01 07:48:36;;;;;;;1.88;0.68;;;18.00;74.20;;;;;;5034345;28;20105;-58
2022/09/01 07:51:02;;;;;;;2.03;0.57;;;18.00;74.00;;;;;;5034366;28;20103;-58
2022/09/01 07:53:31;;;;;;;1.65;0.60;;;18.10;73.90;;;;;;5034255;28;20450;-58
2022/09/01 07:56:05;;;;;;;5.65;0.90;;;18.10;73.50;;;;;;5022914;28;20028;-58
2022/09/01 07:58:32;;;;;;;3.45;0.85;;;18.30;73.60;;;;;;5033839;28;20024;-58
2022/09/01 08:01:01;;;;;;;2.70;0.80;;;18.30;72.90;;;;;;5034635;28;20025;-57
2022/09/01 08:03:32;;;;;;;4.18;0.60;;;18.40;72.60;;;;;;5033923;28;20096;-57
2022/09/01 08:06:12;;;;;;;3.33;0.80;;;18.40;72.40;;;;;;5034274;28;20030;-58
2022/09/01 08:08:38;;;;;;;3.83;0.90;;;18.50;72.10;;;;;;5032156;28;20028;-57
2022/09/01 08:11:05;;;;;;;1.95;0.50;;;18.50;71.70;;;;;;5034011;28;20056;-58
2022/09/01 08:13:32;;;;;;;3.20;0.60;;;18.60;71.40;;;;;;5031605;28;20033;-58
2022/09/01 08:15:57;;;;;;;3.80;0.45;;;18.60;70.90;;;;;;5031391;28;20104;-57
2022/09/01 08:18:23;;;;;;;2.42;0.70;;;18.70;70.80;;;;;;5032280;28;20041;-58
2022/09/01 08:20:49;;;;;;;3.88;0.77;;;18.80;70.70;;;;;;5029819;28;20052;-57
2022/09/01 08:23:17;;;;;;;3.30;0.68;;;18.80;70.40;;;;;;5031091;28;20021;-58
2022/09/01 08:25:45;;;;;;;3.08;0.70;;;18.90;70.10;;;;;;5032265;28;20061;-58
2022/09/01 08:28:13;;;;;;;2.00;0.50;;;19.00;70.60;;;;;;5032654;28;20112;-58
2022/09/01 08:30:41;;;;;;;1.92;0.50;;;19.10;70.50;;;;;;5032340;28;20052;-58
2022/09/01 08:33:10;;;;;;;3.22;0.63;;;19.10;70.80;;;;;;5031579;28;20021;-58
2022/09/01 08:35:39;;;;;;;2.80;0.45;;;19.20;70.00;;;;;;5032223;28;20018;-58
2022/09/01 08:38:04;;;;;;;4.55;0.82;;;19.30;70.00;;;;;;5032738;28;20104;-58
2022/09/01 08:40:30;;;;;;;2.53;1.02;;;19.40;70.10;;;;;;5033577;28;20109;-58
2022/09/01 08:43:17;;;;;;;2.10;0.73;;;19.40;69.60;;;;;;5033131;28;20100;-58
2022/09/01 08:45:47;;;;;;;3.95;0.68;;;19.50;68.90;;;;;;5033369;28;20026;-58
2022/09/01 08:48:27;;;;;;;4.95;0.70;;;19.60;68.90;;;;;;5022056;28;20113;-58
2022/09/01 08:50:55;;;;;;;;;;;19.70;68.10;;;;;;5033097;28;20025;-58
2022/09/01 08:53:33;;;;;;;1.73;0.50;;;19.70;67.40;;;;;;5032231;28;19916;-58
2022/09/01 08:56:03;;;;;;;3.03;0.70;;;19.80;67.10;;;;;;5032606;28;20371;-58
2022/09/01 08:58:30;;;;;;;3.30;0.70;;;19.90;67.20;;;;;;5032825;28;20385;-58
2022/09/01 09:01:01;;;;;;;2.60;0.70;;;19.90;68.00;;;;;;5032674;28;20025;-58
2022/09/01 09:04:02;;;;;;;1.88;0.57;;;20.00;67.30;;;;;;5031476;28;20494;-58
2022/09/01 09:07:04;;;;;;;2.92;0.52;;;20.10;66.80;;;;;;5026659;28;20400;-58
2022/09/01 09:09:40;;;;;;;2.28;0.70;;;20.20;66.30;;;;;;5009716;28;20521;-58
2022/09/01 09:12:23;;;;;;;3.33;0.80;;;20.20;65.00;;;;;;5031395;28;20125;-58
2022/09/01 09:15:06;;;;;;;3.15;0.55;;;20.40;64.20;;;;;;5032838;28;20028;-58
2022/09/01 09:17:42;;;;;;;3.95;0.50;;;20.40;64.00;;;;;;5032812;28;20104;-58
2022/09/01 09:20:08;;;;;;;5.47;1.23;;;20.50;64.20;;;;;;5023591;28;20037;-58
2022/09/01 09:22:33;;;;;;;2.60;0.70;;;20.50;64.80;;;;;;5032413;28;20021;-57
2022/09/01 09:25:13;;;;;;;3.03;0.57;;;20.60;64.60;;;;;;5032993;28;20428;-58
2022/09/01 09:27:44;;;;;;;3.25;1.25;;;20.70;63.60;;;;;;5032012;28;20021;-58
2022/09/01 09:30:36;;;;;;;2.00;1.10;;;20.80;62.60;;;;;;5031188;28;20060;-58
2022/09/01 09:33:04;;;;;;;4.22;0.50;;;20.90;61.00;;;;;;5031991;28;20466;-58
2022/09/01 09:35:56;;;;;;;;;;;;;;;;;;;;;
2022/09/01 09:38:31;;;;;;;2.25;0.50;;;21.00;62.00;;;;;;5027926;28;20031;-58
2022/09/01 09:41:01;;;;;;;2.33;0.70;;;21.10;62.20;;;;;;5032399;28;20022;-58
2022/09/01 09:43:30;;;;;;;2.75;0.60;;;21.10;61.20;;;;;;5032623;28;20017;-58
2022/09/01 09:46:22;;;;;;;2.63;0.50;;;21.20;61.10;;;;;;5032162;28;20028;-58
2022/09/01 09:49:07;;;;;;;1.60;0.60;;;21.20;61.30;;;;;;5029224;28;20036;-58
2022/09/01 09:51:33;;;;;;;3.53;0.60;;;21.30;61.40;;;;;;5032412;28;20014;-58
2022/09/01 09:54:23;;;;;;;2.90;0.45;;;21.30;60.90;;;;;;5032211;28;20022;-58
2022/09/01 09:57:04;;;;;;;2.50;0.60;;;21.40;60.60;;;;;;5026643;28;20120;-58
2022/09/01 09:59:37;;;;;;;1.50;0.32;;;21.50;59.90;;;;;;5032243;28;20063;-58
2022/09/01 10:02:21;;;;;;;3.13;0.40;;;21.60;59.20;;;;;;5028658;28;20040;-58
2022/09/01 10:04:46;;;;;;;2.60;0.60;;;21.70;58.60;;;;;;5029375;28;20018;-58
2022/09/01 10:07:34;;;;;;;1.42;0.40;;;21.80;58.60;;;;;;5030873;28;20033;-58
2022/09/01 10:10:04;;;;;;;1.45;0.50;;;21.90;58.40;;;;;;5032030;28;20029;-58
2022/09/01 10:12:30;;;;;;;1.42;0.40;;;22.00;57.50;;;;;;5032239;28;20055;-58
2022/09/01 10:15:09;;;;;;;2.97;0.57;;;22.10;55.80;;;;;;5031783;28;20021;-58
2022/09/01 10:17:43;;;;;;;2.88;0.70;;;22.30;55.60;;;;;;5032093;28;20040;-58
2022/09/01 10:20:17;;;;;;;1.95;0.50;;;22.40;55.10;;;;;;5030342;28;20022;-58
2022/09/01 10:22:43;;;;;;;1.63;0.40;;;22.50;54.70;;;;;;5032504;28;20022;-58
2022/09/01 10:25:20;;;;;;;0.80;0.32;;;22.60;54.00;;;;;;5031834;28;20025;-58
2022/09/01 10:27:56;;;;;;;2.05;0.50;;;22.80;53.70;;;;;;5031001;28;20032;-58
2022/09/01 10:30:22;;;;;;;1.40;0.40;;;22.90;53.90;;;;;;5019847;28;20049;-58
2022/09/01 10:32:57;;;;;;;2.75;0.45;;;23.10;53.50;;;;;;5032404;28;20029;-58
2022/09/01 10:35:35;;;;;;;2.83;0.40;;;23.20;53.20;;;;;;5031960;28;20105;-58
2022/09/01 10:38:08;;;;;;;4.18;0.52;;;23.40;53.40;;;;;;5029993;28;20551;-58
2022/09/01 10:40:40;;;;;;;2.20;0.35;;;23.50;52.40;;;;;;5031734;28;20022;-58
2022/09/01 10:43:35;;;;;;;1.45;0.43;;;23.70;52.10;;;;;;5025821;28;20018;-58
2022/09/01 10:46:23;;;;;;;1.77;0.40;;;23.90;51.50;;;;;;5031600;28;20021;-58
2022/09/01 10:48:51;;;;;;;3.40;0.57;;;24.20;51.10;;;;;;5023194;28;20025;-58
2022/09/01 10:51:17;;;;;;;2.50;0.68;;;24.30;50.30;;;;;;5030276;28;20026;-58
2022/09/01 10:53:44;;;;;;;2.65;0.45;;;24.60;50.00;;;;;;5030650;28;20017;-58
2022/09/01 10:56:36;;;;;;;1.95;0.50;;;24.80;49.60;;;;;;5031413;28;20026;-58
2022/09/01 10:59:22;;;;;;;1.55;0.32;;;25.30;49.30;;;;;;5031766;28;20030;-58
2022/09/01 11:01:48;;;;;;;0.85;0.40;;;26.90;48.00;;;;;;5026040;28;20029;-59
2022/09/01 11:04:38;;;;;;;1.00;0.40;;;28.80;43.70;;;;;;5028840;28;20393;-58
2022/09/01 11:07:22;;;;;;;3.67;0.50;;;30.50;42.30;;;;;;5030432;28;20013;-58
2022/09/01 11:10:31;;;;;;;1.58;0.50;;;32.00;41.00;;;;;;5028885;28;20031;-58
2022/09/01 11:13:28;;;;;;;1.30;0.65;;;33.60;39.40;;;;;;5028094;28;20029;-59
2022/09/01 11:15:54;;;;;;;2.88;0.40;;;34.10;36.90;;;;;;5029359;28;20106;-58
2022/09/01 11:18:28;;;;;;;3.03;0.50;;;33.90;36.80;;;;;;5030784;28;20171;-59
2022/09/01 11:21:03;;;;;;;1.40;0.50;;;34.00;36.70;;;;;;5030561;28;20390;-58
2022/09/01 11:26:39;;;;;;;2.13;0.50;;;33.90;36.00;;;;;;5031254;28;20381;-59
2022/09/01 11:29:43;;;;;;;1.80;0.55;;;35.20;36.30;;;;;;5028647;28;20120;-59
2022/09/01 11:32:09;;;;;;;1.67;0.52;;;36.70;34.20;;;;;;5033332;28;20091;-60
2022/09/01 11:34:43;;;;;;;1.25;0.43;;;37.50;33.70;;;;;;5033761;28;20461;-59
2022/09/01 11:37:14;;;;;;;1.27;0.70;;;38.20;34.00;;;;;;5034324;28;20043;-59
2022/09/01 11:39:46;;;;;;;1.35;0.70;;;38.50;32.20;;;;;;5034387;28;20109;-60
2022/09/01 11:42:20;;;;;;;2.20;0.70;;;38.90;32.10;;;;;;5034739;28;20030;-59
2022/09/01 11:44:57;;;;;;;1.65;0.60;;;39.30;31.80;;;;;;5030210;28;20028;-59
2022/09/01 11:47:28;;;;;;;2.05;0.73;;;39.70;31.80;;;;;;5034473;28;20030;-59
2022/09/01 11:49:57;;;;;;;1.63;0.57;;;40.60;31.60;;;;;;5034651;28;20104;-59
2022/09/01 11:52:28;;;;;;;1.95;0.50;;;40.70;28.80;;;;;;5034173;28;20026;-60
2022/09/01 11:54:54;;;;;;;1.63;0.50;;;40.90;29.60;;;;;;5033315;28;20078;-59
2022/09/01 11:57:37;;;;;;;1.48;0.75;;;41.70;29.70;;;;;;5033976;28;20112;-59
2022/09/01 12:00:08;;;;;;;1.33;0.70;;;42.40;29.60;;;;;;5028096;28;20044;-59
2022/09/01 12:02:35;;;;;;;1.17;0.50;;;42.70;28.70;;;;;;5034309;28;20057;-59
2022/09/01 12:05:23;;;;;;;2.72;0.80;;;43.00;29.10;;;;;;5033854;28;20064;-59
2022/09/01 12:07:48;;;;;;;1.15;0.60;;;43.10;28.70;;;;;;5032383;28;20038;-59
2022/09/01 12:10:31;;;;;;;1.80;0.70;;;42.80;28.90;;;;;;5031445;28;20029;-59
2022/09/01 12:13:13;;;;;;;1.80;0.63;;;42.20;29.00;;;;;;5029312;28;20041;-59
2022/09/01 12:15:43;;;;;;;1.83;0.90;;;41.80;29.00;;;;;;5029069;28;20515;-59
2022/09/01 12:18:17;;;;;;;4.00;0.63;;;42.00;29.30;;;;;;5013052;28;20037;-59
2022/09/01 12:20:44;;;;;;;0.63;0.60;;;42.20;28.80;;;;;;5017061;28;20032;-59
2022/09/01 12:23:26;;;;;;;1.00;0.70;;;42.40;29.00;;;;;;5029716;28;20018;-59
2022/09/01 12:26:01;;;;;;;1.70;0.60;;;41.80;28.30;;;;;;5042790;28;20048;-60
2022/09/01 12:28:30;;;;;;;2.22;0.80;;;41.40;28.90;;;;;;5029952;28;20509;-60
2022/09/01 12:30:58;;;;;;;1.50;1.05;;;40.90;29.30;;;;;;5032048;28;20041;-59
2022/09/01 12:33:24;;;;;;;2.47;0.80;;;40.80;29.10;;;;;;5030340;28;20469;-59
2022/09/01 12:35:50;;;;;;;3.58;0.98;;;40.60;29.60;;;;;;5019139;28;20076;-60
2022/09/01 12:38:20;;;;;;;0.95;0.70;;;40.70;29.70;;;;;;5032092;28;20045;-59
2022/09/01 12:40:49;;;;;;;2.35;0.85;;;40.40;29.70;;;;;;5033756;28;20025;-59
2022/09/01 12:43:37;;;;;;;1.90;0.80;;;40.20;29.80;;;;;;5033345;28;20029;-59
2022/09/01 12:46:05;;;;;;;2.10;0.80;;;40.10;29.70;;;;;;5033422;28;20032;-59
2022/09/01 12:48:39;;;;;;;2.88;0.80;;;39.40;29.50;;;;;;5033581;28;20048;-59
2022/09/01 12:51:25;;;;;;;2.67;0.70;;;38.90;29.90;;;;;;5042605;28;20037;-59
2022/09/01 12:53:57;;;;;;;4.00;0.82;;;38.80;30.10;;;;;;5032967;28;20038;-59
2022/09/01 12:56:34;;;;;;;1.83;0.60;;;38.80;30.30;;;;;;5033196;28;20057;-59
2022/09/01 12:59:11;;;;;;;3.55;0.70;;;38.70;30.30;;;;;;5032620;28;20102;-59
2022/09/01 13:01:38;;;;;;;3.00;0.65;;;38.60;30.30;;;;;;5033069;28;20108;-59
2022/09/01 13:04:25;;;;;;;1.67;0.70;;;38.20;30.00;;;;;;5032943;28;20079;-59
2022/09/01 13:06:52;;;;;;;2.45;0.75;;;38.00;29.80;;;;;;5032991;28;20052;-59
2022/09/01 13:09:18;;;;;;;1.80;0.70;;;37.30;29.10;;;;;;5032768;28;20028;-59
2022/09/01 13:11:46;;;;;;;2.80;0.80;;;37.20;29.80;;;;;;5031763;28;20030;-59
2022/09/01 13:14:12;;;;;;;;;;;37.40;29.80;;;;;;5024719;28;20112;-59
2022/09/01 13:16:37;;;;;;;2.35;0.57;;;37.50;30.00;;;;;;5032604;28;19995;-59
2022/09/01 13:19:03;;;;;;;1.20;0.50;;;37.50;30.10;;;;;;5033046;28;20607;-59
2022/09/01 13:21:30;;;;;;;1.67;0.60;;;37.40;30.30;;;;;;5032683;28;20040;-59
2022/09/01 13:23:55;;;;;;;1.80;1.00;;;37.40;30.40;;;;;;5031618;28;20013;-59
2022/09/01 13:26:21;;;;;;;1.42;0.60;;;37.40;30.00;;;;;;5032422;28;20068;-59
2022/09/01 13:28:47;;;;;;;2.05;0.70;;;37.00;29.10;;;;;;5033138;28;20075;-59
2022/09/01 13:31:12;;;;;;;2.15;0.60;;;36.50;29.90;;;;;;5032492;28;20552;-59
2022/09/01 13:33:38;;;;;;;3.17;0.80;;;36.20;30.70;;;;;;5032822;28;20034;-59
2022/09/01 13:36:04;;;;;;;2.70;0.60;;;36.40;31.30;;;;;;5032261;28;20037;-59